Yasuj Airport

Airport
ICAO code: 
OISY
IATA Code: 
YES
Summary
ICAO Region: 
MID
Territory: 
Location: 
Balahzar, Kohgiluyeh and Boyer-Ahmad Province
Serving: 
Yasuj
Elevation: 
5939 ft
Coordinates: 
Aerial View: 
30° 41' 59.186" N, 51° 33' 9.936" E
Metar
Observation
OISY 030900Z 00000KT 9000 NSC 38/M07 Q1011
Station
Yasouj / National
Date/Time
2022-07-03 09:00:00
Wind direction
Wind speed
00 kts
Lowest cloud amount
nil significant cloud
Temperature
38°C
Dew point
-7°C
Humidity
5%
QNH
1011 hPa
Weather condition
n/a

Airport serving the city of Yasuj, Iran.

Climatology

Mediterranean climate (Köppen climate classification Csa). Hot summers and frequent rain in the winter months.

Runways

Designator Length Width Surface Rops
13/31 2598 45 ASP No/No
Airport map: 
Aerial View: 

Accidents and Serious Incidents at or in the vicinity of OISY

SKYbrary Partners:

Safety knowledge contributed by: